sensor_id;sensor_type;location;lat;lon;timestamp;pressure;altitude;pressure_sealevel;temperature;humidity
73842;BME280;62184;52.006;5.924;2023-07-20T00:01:37;100614.00;;;23.13;46.92
73842;BME280;62184;52.006;5.924;2023-07-20T00:04:03;100617.59;;;23.13;46.73
73842;BME280;62184;52.006;5.924;2023-07-20T00:06:32;100613.88;;;23.14;47.16
73842;BME280;62184;52.006;5.924;2023-07-20T00:08:59;100615.97;;;23.11;47.20
73842;BME280;62184;52.006;5.924;2023-07-20T00:11:26;100621.56;;;23.09;46.53
73842;BME280;62184;52.006;5.924;2023-07-20T00:13:53;100615.38;;;23.07;46.89
73842;BME280;62184;52.006;5.924;2023-07-20T00:16:20;100613.75;;;23.05;46.76
73842;BME280;62184;52.006;5.924;2023-07-20T00:18:46;100611.16;;;23.03;46.89
73842;BME280;62184;52.006;5.924;2023-07-20T00:21:12;100619.81;;;22.97;47.19
73842;BME280;62184;52.006;5.924;2023-07-20T00:23:42;100619.34;;;22.92;47.56
73842;BME280;62184;52.006;5.924;2023-07-20T00:26:08;100619.06;;;22.84;47.15
73842;BME280;62184;52.006;5.924;2023-07-20T00:28:34;100619.53;;;22.78;48.06
73842;BME280;62184;52.006;5.924;2023-07-20T00:31:01;100607.06;;;22.75;47.52
73842;BME280;62184;52.006;5.924;2023-07-20T00:33:28;100625.00;;;22.67;47.59
73842;BME280;62184;52.006;5.924;2023-07-20T00:35:54;100610.97;;;22.60;48.06
73842;BME280;62184;52.006;5.924;2023-07-20T00:38:21;100609.38;;;22.58;48.12
73842;BME280;62184;52.006;5.924;2023-07-20T00:40:50;100615.16;;;22.53;48.60
73842;BME280;62184;52.006;5.924;2023-07-20T00:43:16;100614.75;;;22.46;48.34
73842;BME280;62184;52.006;5.924;2023-07-20T00:45:43;100616.84;;;22.43;48.92
73842;BME280;62184;52.006;5.924;2023-07-20T00:48:11;100617.84;;;22.42;48.67
73842;BME280;62184;52.006;5.924;2023-07-20T00:50:39;100613.00;;;22.45;48.60
73842;BME280;62184;52.006;5.924;2023-07-20T00:53:07;100614.38;;;22.40;49.02
73842;BME280;62184;52.006;5.924;2023-07-20T00:55:34;100612.47;;;22.29;49.11
73842;BME280;62184;52.006;5.924;2023-07-20T00:58:04;100618.88;;;22.28;49.70
73842;BME280;62184;52.006;5.924;2023-07-20T01:00:31;100602.44;;;22.30;49.91
73842;BME280;62184;52.006;5.924;2023-07-20T01:02:57;100604.66;;;22.25;50.18
73842;BME280;62184;52.006;5.924;2023-07-20T01:05:27;100603.63;;;22.15;50.38
73842;BME280;62184;52.006;5.924;2023-07-20T01:08:07;100606.31;;;22.03;50.80
73842;BME280;62184;52.006;5.924;2023-07-20T01:10:45;100609.72;;;21.94;50.81
73842;BME280;62184;52.006;5.924;2023-07-20T01:13:20;100616.38;;;21.90;51.44
73842;BME280;62184;52.006;5.924;2023-07-20T01:15:49;100608.13;;;21.92;51.03
73842;BME280;62184;52.006;5.924;2023-07-20T01:18:16;100615.41;;;21.91;51.55
73842;BME280;62184;52.006;5.924;2023-07-20T01:20:43;100617.00;;;21.94;51.37
73842;BME280;62184;52.006;5.924;2023-07-20T01:23:28;100619.41;;;21.98;51.23
73842;BME280;62184;52.006;5.924;2023-07-20T01:29:54;100635.88;;;22.08;51.72
73842;BME280;62184;52.006;5.924;2023-07-20T01:32:43;100628.34;;;22.12;51.67
73842;BME280;62184;52.006;5.924;2023-07-20T01:35:16;100624.66;;;22.13;51.46
73842;BME280;62184;52.006;5.924;2023-07-20T01:37:44;100624.53;;;22.14;51.43
73842;BME280;62184;52.006;5.924;2023-07-20T01:40:13;100629.50;;;22.20;51.41
73842;BME280;62184;52.006;5.924;2023-07-20T01:42:44;100641.13;;;22.22;51.47
73842;BME280;62184;52.006;5.924;2023-07-20T01:45:11;100629.38;;;22.22;51.64
73842;BME280;62184;52.006;5.924;2023-07-20T01:47:37;100628.63;;;22.20;51.56
73842;BME280;62184;52.006;5.924;2023-07-20T01:52:34;100627.84;;;22.06;51.09
73842;BME280;62184;52.006;5.924;2023-07-20T01:55:00;100629.41;;;21.98;51.18
73842;BME280;62184;52.006;5.924;2023-07-20T01:57:27;100625.16;;;21.94;51.19
73842;BME280;62184;52.006;5.924;2023-07-20T01:59:54;100635.66;;;21.87;51.69
73842;BME280;62184;52.006;5.924;2023-07-20T02:02:20;100624.25;;;21.82;51.75
73842;BME280;62184;52.006;5.924;2023-07-20T02:04:46;100634.38;;;21.80;51.41
73842;BME280;62184;52.006;5.924;2023-07-20T02:07:16;100626.97;;;21.82;52.10
73842;BME280;62184;52.006;5.924;2023-07-20T02:09:42;100626.88;;;21.84;51.75
73842;BME280;62184;52.006;5.924;2023-07-20T02:12:09;100628.56;;;21.85;51.93
73842;BME280;62184;52.006;5.924;2023-07-20T02:14:36;100626.63;;;21.87;52.03
73842;BME280;62184;52.006;5.924;2023-07-20T02:17:02;100635.53;;;21.89;51.54
73842;BME280;62184;52.006;5.924;2023-07-20T02:19:30;100631.94;;;21.88;51.67
73842;BME280;62184;52.006;5.924;2023-07-20T02:21:56;100630.84;;;21.91;51.83
73842;BME280;62184;52.006;5.924;2023-07-20T02:24:25;100625.16;;;21.94;50.92
73842;BME280;62184;52.006;5.924;2023-07-20T02:26:52;100630.09;;;21.89;51.11
73842;BME280;62184;52.006;5.924;2023-07-20T02:29:18;100641.56;;;21.81;50.81
73842;BME280;62184;52.006;5.924;2023-07-20T02:31:45;100631.22;;;21.74;51.02
73842;BME280;62184;52.006;5.924;2023-07-20T02:34:11;100634.50;;;21.66;51.21
73842;BME280;62184;52.006;5.924;2023-07-20T02:36:38;100626.69;;;21.61;50.68
73842;BME280;62184;52.006;5.924;2023-07-20T02:39:04;100637.81;;;21.58;50.64
73842;BME280;62184;52.006;5.924;2023-07-20T02:41:33;100633.44;;;21.56;50.70
73842;BME280;62184;52.006;5.924;2023-07-20T02:44:00;100633.66;;;21.53;50.49
73842;BME280;62184;52.006;5.924;2023-07-20T02:46:27;100641.19;;;21.49;50.40
73842;BME280;62184;52.006;5.924;2023-07-20T02:48:53;100642.63;;;21.42;50.90
73842;BME280;62184;52.006;5.924;2023-07-20T02:51:20;100637.63;;;21.36;50.85
73842;BME280;62184;52.006;5.924;2023-07-20T02:53:46;100643.41;;;21.31;50.54
73842;BME280;62184;52.006;5.924;2023-07-20T02:56:13;100651.88;;;21.27;50.49
73842;BME280;62184;52.006;5.924;2023-07-20T02:58:42;100651.13;;;21.25;50.55
73842;BME280;62184;52.006;5.924;2023-07-20T03:01:09;100649.50;;;21.22;51.12
73842;BME280;62184;52.006;5.924;2023-07-20T03:03:36;100659.06;;;21.15;51.01
73842;BME280;62184;52.006;5.924;2023-07-20T03:06:02;100672.09;;;21.10;50.62
73842;BME280;62184;52.006;5.924;2023-07-20T03:08:29;100678.94;;;21.03;50.82
73842;BME280;62184;52.006;5.924;2023-07-20T03:10:55;100674.81;;;20.98;50.79
73842;BME280;62184;52.006;5.924;2023-07-20T03:13:22;100671.66;;;20.91;51.50
73842;BME280;62184;52.006;5.924;2023-07-20T03:15:51;100672.81;;;20.87;51.23
73842;BME280;62184;52.006;5.924;2023-07-20T03:18:18;100677.63;;;20.83;51.67
73842;BME280;62184;52.006;5.924;2023-07-20T03:20:45;100679.00;;;20.76;51.39
73842;BME280;62184;52.006;5.924;2023-07-20T03:23:11;100673.13;;;20.70;51.95
73842;BME280;62184;52.006;5.924;2023-07-20T03:25:38;100680.50;;;20.68;51.64
73842;BME280;62184;52.006;5.924;2023-07-20T03:28:04;100676.94;;;20.67;52.11
73842;BME280;62184;52.006;5.924;2023-07-20T03:30:31;100676.94;;;20.67;51.46
73842;BME280;62184;52.006;5.924;2023-07-20T03:33:00;100681.19;;;20.71;51.24
73842;BME280;62184;52.006;5.924;2023-07-20T03:35:26;100676.50;;;20.73;50.90
73842;BME280;62184;52.006;5.924;2023-07-20T03:37:53;100672.06;;;20.72;51.51
73842;BME280;62184;52.006;5.924;2023-07-20T03:40:19;100673.91;;;20.72;50.91
73842;BME280;62184;52.006;5.924;2023-07-20T03:42:45;100681.94;;;20.73;50.81
73842;BME280;62184;52.006;5.924;2023-07-20T03:45:12;100681.28;;;20.70;51.41
73842;BME280;62184;52.006;5.924;2023-07-20T03:47:39;100666.09;;;20.67;51.35
73842;BME280;62184;52.006;5.924;2023-07-20T03:50:08;100673.22;;;20.68;50.97
73842;BME280;62184;52.006;5.924;2023-07-20T03:52:35;100672.50;;;20.66;51.32
73842;BME280;62184;52.006;5.924;2023-07-20T03:55:02;100679.53;;;20.69;51.23
73842;BME280;62184;52.006;5.924;2023-07-20T03:57:29;100677.50;;;20.72;51.48
73842;BME280;62184;52.006;5.924;2023-07-20T03:59:55;100685.44;;;20.75;52.22
73842;BME280;62184;52.006;5.924;2023-07-20T04:02:22;100694.09;;;20.80;52.16
73842;BME280;62184;52.006;5.924;2023-07-20T04:04:49;100694.88;;;20.82;51.83
73842;BME280;62184;52.006;5.924;2023-07-20T04:07:18;100694.66;;;20.85;51.91
73842;BME280;62184;52.006;5.924;2023-07-20T04:09:44;100690.41;;;20.94;52.14
73842;BME280;62184;52.006;5.924;2023-07-20T04:12:11;100694.38;;;21.03;52.13
73842;BME280;62184;52.006;5.924;2023-07-20T04:14:37;100701.09;;;21.10;51.79
73842;BME280;62184;52.006;5.924;2023-07-20T04:17:04;100696.22;;;21.15;51.15
73842;BME280;62184;52.006;5.924;2023-07-20T04:19:30;100689.94;;;21.14;51.54
73842;BME280;62184;52.006;5.924;2023-07-20T04:21:57;100691.78;;;21.14;51.31
73842;BME280;62184;52.006;5.924;2023-07-20T04:24:26;100693.50;;;21.15;51.19
73842;BME280;62184;52.006;5.924;2023-07-20T04:26:52;100691.31;;;21.20;50.92
73842;BME280;62184;52.006;5.924;2023-07-20T04:29:19;100694.28;;;21.17;51.16
73842;BME280;62184;52.006;5.924;2023-07-20T04:31:45;100696.44;;;21.12;51.23
73842;BME280;62184;52.006;5.924;2023-07-20T04:34:12;100698.63;;;21.07;51.50
73842;BME280;62184;52.006;5.924;2023-07-20T04:36:38;100696.78;;;21.07;51.49
73842;BME280;62184;52.006;5.924;2023-07-20T04:39:05;100693.38;;;21.29;51.06
73842;BME280;62184;52.006;5.924;2023-07-20T04:41:34;100703.59;;;21.13;50.98
73842;BME280;62184;52.006;5.924;2023-07-20T04:44:00;100713.59;;;21.12;51.53
73842;BME280;62184;52.006;5.924;2023-07-20T04:46:27;100711.75;;;21.13;51.58
73842;BME280;62184;52.006;5.924;2023-07-20T04:48:53;100717.28;;;21.11;51.74
73842;BME280;62184;52.006;5.924;2023-07-20T04:51:20;100716.00;;;21.17;51.43
73842;BME280;62184;52.006;5.924;2023-07-20T04:53:46;100708.94;;;21.14;51.53
73842;BME280;62184;52.006;5.924;2023-07-20T04:56:13;100705.34;;;21.14;51.56
73842;BME280;62184;52.006;5.924;2023-07-20T04:58:42;100715.88;;;21.18;51.08
73842;BME280;62184;52.006;5.924;2023-07-20T05:01:09;100720.22;;;21.21;50.90
73842;BME280;62184;52.006;5.924;2023-07-20T05:03:35;100724.59;;;21.23;51.02
73842;BME280;62184;52.006;5.924;2023-07-20T05:06:02;100715.13;;;21.29;50.86
73842;BME280;62184;52.006;5.924;2023-07-20T05:08:28;100719.69;;;21.28;50.78
73842;BME280;62184;52.006;5.924;2023-07-20T05:10:55;100716.75;;;21.31;50.80
73842;BME280;62184;52.006;5.924;2023-07-20T05:13:21;100715.00;;;21.30;50.67
73842;BME280;62184;52.006;5.924;2023-07-20T05:15:53;100717.84;;;21.29;50.69
73842;BME280;62184;52.006;5.924;2023-07-20T05:18:20;100709.94;;;21.26;51.11
73842;BME280;62184;52.006;5.924;2023-07-20T05:20:47;100720.78;;;21.26;50.89
73842;BME280;62184;52.006;5.924;2023-07-20T05:23:13;100717.06;;;21.27;51.02
73842;BME280;62184;52.006;5.924;2023-07-20T05:25:40;100721.88;;;21.23;51.41
73842;BME280;62184;52.006;5.924;2023-07-20T05:28:07;100719.34;;;21.20;51.49
73842;BME280;62184;52.006;5.924;2023-07-20T05:30:34;100721.22;;;21.20;51.12
73842;BME280;62184;52.006;5.924;2023-07-20T05:33:03;100726.34;;;21.24;51.46
73842;BME280;62184;52.006;5.924;2023-07-20T05:35:29;100725.22;;;21.27;51.06
73842;BME280;62184;52.006;5.924;2023-07-20T05:37:56;100726.97;;;21.28;51.13
73842;BME280;62184;52.006;5.924;2023-07-20T05:40:22;100729.38;;;21.32;51.46
73842;BME280;62184;52.006;5.924;2023-07-20T05:42:49;100736.31;;;21.37;50.91
73842;BME280;62184;52.006;5.924;2023-07-20T05:45:15;100744.16;;;21.41;50.63
73842;BME280;62184;52.006;5.924;2023-07-20T05:47:42;100744.88;;;21.43;50.64
73842;BME280;62184;52.006;5.924;2023-07-20T05:50:11;100738.94;;;21.51;51.04
73842;BME280;62184;52.006;5.924;2023-07-20T05:52:39;100737.41;;;21.59;50.49
73842;BME280;62184;52.006;5.924;2023-07-20T05:55:06;100738.44;;;21.69;50.46
73842;BME280;62184;52.006;5.924;2023-07-20T05:57:33;100737.81;;;21.79;50.42
73842;BME280;62184;52.006;5.924;2023-07-20T06:00:00;100740.63;;;21.90;50.35
73842;BME280;62184;52.006;5.924;2023-07-20T06:02:26;100730.91;;;21.98;49.82
73842;BME280;62184;52.006;5.924;2023-07-20T06:04:53;100732.25;;;21.93;49.61
73842;BME280;62184;52.006;5.924;2023-07-20T06:07:23;100735.81;;;21.93;49.80
73842;BME280;62184;52.006;5.924;2023-07-20T06:09:49;100738.66;;;21.92;48.69
73842;BME280;62184;52.006;5.924;2023-07-20T06:12:15;100739.75;;;21.89;49.47
73842;BME280;62184;52.006;5.924;2023-07-20T06:14:42;100741.38;;;21.92;49.64
73842;BME280;62184;52.006;5.924;2023-07-20T06:17:09;100742.97;;;21.94;48.80
73842;BME280;62184;52.006;5.924;2023-07-20T06:19:35;100753.00;;;21.94;48.41
73842;BME280;62184;52.006;5.924;2023-07-20T06:22:02;100759.75;;;22.01;48.40
73842;BME280;62184;52.006;5.924;2023-07-20T06:24:32;100752.22;;;22.04;47.74
73842;BME280;62184;52.006;5.924;2023-07-20T06:26:58;100755.03;;;22.03;47.51
73842;BME280;62184;52.006;5.924;2023-07-20T06:29:25;100754.81;;;22.06;47.56
73842;BME280;62184;52.006;5.924;2023-07-20T06:31:51;100749.38;;;22.06;47.33
73842;BME280;62184;52.006;5.924;2023-07-20T06:34:18;100748.41;;;22.07;47.51
73842;BME280;62184;52.006;5.924;2023-07-20T06:36:44;100753.44;;;22.00;47.01
73842;BME280;62184;52.006;5.924;2023-07-20T06:39:10;100756.47;;;21.96;46.69
73842;BME280;62184;52.006;5.924;2023-07-20T06:41:40;100753.34;;;21.89;47.10
73842;BME280;62184;52.006;5.924;2023-07-20T06:44:06;100751.38;;;21.91;47.51
73842;BME280;62184;52.006;5.924;2023-07-20T06:46:32;100758.72;;;22.02;47.04
73842;BME280;62184;52.006;5.924;2023-07-20T06:48:59;100754.25;;;22.14;46.22
73842;BME280;62184;52.006;5.924;2023-07-20T06:51:25;100757.63;;;22.17;45.17
73842;BME280;62184;52.006;5.924;2023-07-20T06:53:52;100759.34;;;22.18;45.28
73842;BME280;62184;52.006;5.924;2023-07-20T06:56:19;100756.41;;;22.21;45.38
73842;BME280;62184;52.006;5.924;2023-07-20T06:58:48;100761.38;;;22.27;44.90
73842;BME280;62184;52.006;5.924;2023-07-20T07:01:14;100757.75;;;22.39;44.02
73842;BME280;62184;52.006;5.924;2023-07-20T07:03:41;100762.94;;;22.55;43.78
73842;BME280;62184;52.006;5.924;2023-07-20T07:06:07;100751.56;;;22.61;43.80
73842;BME280;62184;52.006;5.924;2023-07-20T07:08:34;100762.41;;;22.74;43.68
73842;BME280;62184;52.006;5.924;2023-07-20T07:11:00;100769.16;;;22.92;43.41
73842;BME280;62184;52.006;5.924;2023-07-20T07:13:27;100766.00;;;23.09;42.82
73842;BME280;62184;52.006;5.924;2023-07-20T07:15:56;100762.94;;;23.36;42.73
73842;BME280;62184;52.006;5.924;2023-07-20T07:18:22;100757.91;;;23.65;42.30
73842;BME280;62184;52.006;5.924;2023-07-20T07:20:52;100761.16;;;23.92;41.35
73842;BME280;62184;52.006;5.924;2023-07-20T07:23:19;100767.09;;;24.09;41.54
73842;BME280;62184;52.006;5.924;2023-07-20T07:25:46;100774.25;;;24.21;40.59
73842;BME280;62184;52.006;5.924;2023-07-20T07:28:12;100780.09;;;24.16;40.30
73842;BME280;62184;52.006;5.924;2023-07-20T07:30:39;100771.81;;;24.07;39.95
73842;BME280;62184;52.006;5.924;2023-07-20T07:33:09;100773.03;;;24.03;40.49
73842;BME280;62184;52.006;5.924;2023-07-20T07:35:35;100774.13;;;24.11;39.94
73842;BME280;62184;52.006;5.924;2023-07-20T07:38:02;100780.34;;;24.24;40.50
73842;BME280;62184;52.006;5.924;2023-07-20T07:40:29;100778.69;;;24.33;39.67
73842;BME280;62184;52.006;5.924;2023-07-20T07:42:55;100776.56;;;24.37;39.64
73842;BME280;62184;52.006;5.924;2023-07-20T07:45:22;100771.09;;;24.48;40.04
73842;BME280;62184;52.006;5.924;2023-07-20T07:47:48;100778.63;;;24.66;40.09
73842;BME280;62184;52.006;5.924;2023-07-20T07:50:17;100785.19;;;24.96;39.61
73842;BME280;62184;52.006;5.924;2023-07-20T07:52:44;100780.88;;;25.14;38.76
73842;BME280;62184;52.006;5.924;2023-07-20T07:55:10;100778.34;;;25.22;39.08
73842;BME280;62184;52.006;5.924;2023-07-20T07:57:37;100785.44;;;25.45;39.49
73842;BME280;62184;52.006;5.924;2023-07-20T08:00:07;100778.13;;;25.76;38.25
73842;BME280;62184;52.006;5.924;2023-07-20T08:02:34;100775.03;;;25.91;37.61
73842;BME280;62184;52.006;5.924;2023-07-20T08:05:01;100779.88;;;25.87;36.94
73842;BME280;62184;52.006;5.924;2023-07-20T08:07:30;100780.09;;;25.95;37.10
73842;BME280;62184;52.006;5.924;2023-07-20T08:09:56;100784.53;;;26.27;37.32
73842;BME280;62184;52.006;5.924;2023-07-20T08:12:23;100780.72;;;26.58;35.86
73842;BME280;62184;52.006;5.924;2023-07-20T08:14:49;100780.88;;;26.85;35.33
73842;BME280;62184;52.006;5.924;2023-07-20T08:17:17;100781.72;;;27.15;35.83
73842;BME280;62184;52.006;5.924;2023-07-20T08:19:43;100784.00;;;27.48;34.84
73842;BME280;62184;52.006;5.924;2023-07-20T08:22:11;100783.09;;;27.57;33.78
73842;BME280;62184;52.006;5.924;2023-07-20T08:24:42;100781.81;;;27.61;33.21
73842;BME280;62184;52.006;5.924;2023-07-20T08:27:09;100785.25;;;27.63;33.23
73842;BME280;62184;52.006;5.924;2023-07-20T08:29:36;100790.34;;;27.49;33.31
73842;BME280;62184;52.006;5.924;2023-07-20T08:32:03;100782.16;;;27.29;33.49
73842;BME280;62184;52.006;5.924;2023-07-20T08:34:30;100792.09;;;27.40;34.39
73842;BME280;62184;52.006;5.924;2023-07-20T08:36:57;100788.31;;;27.60;34.08
73842;BME280;62184;52.006;5.924;2023-07-20T08:39:25;100779.44;;;27.86;33.64
73842;BME280;62184;52.006;5.924;2023-07-20T08:41:55;100787.22;;;28.18;33.00
73842;BME280;62184;52.006;5.924;2023-07-20T08:44:22;100778.69;;;28.48;32.64
73842;BME280;62184;52.006;5.924;2023-07-20T08:46:48;100790.78;;;28.73;31.93
73842;BME280;62184;52.006;5.924;2023-07-20T08:49:16;100796.06;;;28.84;31.38
73842;BME280;62184;52.006;5.924;2023-07-20T08:51:46;100793.13;;;28.95;30.54
73842;BME280;62184;52.006;5.924;2023-07-20T08:54:14;100801.09;;;29.06;31.14
73842;BME280;62184;52.006;5.924;2023-07-20T08:56:42;100792.84;;;29.24;29.86
73842;BME280;62184;52.006;5.924;2023-07-20T08:59:16;100793.63;;;29.16;30.28
73842;BME280;62184;52.006;5.924;2023-07-20T09:01:44;100795.34;;;29.35;29.99
73842;BME280;62184;52.006;5.924;2023-07-20T09:04:10;100792.28;;;29.64;29.79
73842;BME280;62184;52.006;5.924;2023-07-20T09:06:37;100794.56;;;29.95;28.85
73842;BME280;62184;52.006;5.924;2023-07-20T09:09:04;100778.44;;;30.08;28.89
73842;BME280;62184;52.006;5.924;2023-07-20T09:11:31;100784.38;;;30.21;28.78
73842;BME280;62184;52.006;5.924;2023-07-20T09:14:04;100780.88;;;30.11;27.75
73842;BME280;62184;52.006;5.924;2023-07-20T09:16:46;100777.66;;;30.23;28.38
73842;BME280;62184;52.006;5.924;2023-07-20T09:19:14;100780.75;;;30.62;27.75
73842;BME280;62184;52.006;5.924;2023-07-20T09:21:41;100768.31;;;30.66;27.52
73842;BME280;62184;52.006;5.924;2023-07-20T09:24:10;100772.56;;;30.53;27.79
73842;BME280;62184;52.006;5.924;2023-07-20T09:26:41;100776.44;;;30.68;27.08
73842;BME280;62184;52.006;5.924;2023-07-20T09:29:08;100777.84;;;30.88;26.65
73842;BME280;62184;52.006;5.924;2023-07-20T09:31:38;100780.41;;;31.14;26.35
73842;BME280;62184;52.006;5.924;2023-07-20T09:34:05;100773.19;;;31.05;25.08
73842;BME280;62184;52.006;5.924;2023-07-20T09:36:33;100772.13;;;30.98;24.56
73842;BME280;62184;52.006;5.924;2023-07-20T09:39:03;100774.56;;;30.85;25.60
73842;BME280;62184;52.006;5.924;2023-07-20T09:41:30;100769.38;;;30.98;25.38
73842;BME280;62184;52.006;5.924;2023-07-20T09:44:05;100764.22;;;31.11;25.67
73842;BME280;62184;52.006;5.924;2023-07-20T09:46:44;100767.69;;;31.05;25.64
73842;BME280;62184;52.006;5.924;2023-07-20T09:49:12;100767.31;;;31.08;25.56
73842;BME280;62184;52.006;5.924;2023-07-20T09:51:38;100765.94;;;30.88;25.30
73842;BME280;62184;52.006;5.924;2023-07-20T09:54:06;100767.28;;;30.67;25.97
73842;BME280;62184;52.006;5.924;2023-07-20T09:56:33;100765.94;;;30.80;25.99
73842;BME280;62184;52.006;5.924;2023-07-20T09:59:00;100764.22;;;30.87;26.29
73842;BME280;62184;52.006;5.924;2023-07-20T10:01:29;100765.25;;;30.94;25.96
73842;BME280;62184;52.006;5.924;2023-07-20T10:04:03;100760.94;;;30.99;26.24
73842;BME280;62184;52.006;5.924;2023-07-20T10:06:33;100762.19;;;31.21;25.85
73842;BME280;62184;52.006;5.924;2023-07-20T10:09:03;100762.50;;;31.42;25.31
73842;BME280;62184;52.006;5.924;2023-07-20T10:11:31;100763.53;;;31.41;25.38
73842;BME280;62184;52.006;5.924;2023-07-20T10:14:03;100761.63;;;31.42;25.38
73842;BME280;62184;52.006;5.924;2023-07-20T10:16:34;100764.41;;;31.34;25.55
73842;BME280;62184;52.006;5.924;2023-07-20T10:19:07;100762.50;;;31.34;25.04
73842;BME280;62184;52.006;5.924;2023-07-20T10:21:42;100758.38;;;31.22;25.40
73842;BME280;62184;52.006;5.924;2023-07-20T10:24:13;100752.84;;;31.22;26.18
73842;BME280;62184;52.006;5.924;2023-07-20T10:26:41;100757.50;;;31.46;25.35
73842;BME280;62184;52.006;5.924;2023-07-20T10:29:07;100766.06;;;31.67;25.74
73842;BME280;62184;52.006;5.924;2023-07-20T10:31:35;100758.81;;;31.74;25.51
73842;BME280;62184;52.006;5.924;2023-07-20T10:34:07;100753.47;;;31.65;24.86
73842;BME280;62184;52.006;5.924;2023-07-20T10:36:43;100755.19;;;31.66;25.18
73842;BME280;62184;52.006;5.924;2023-07-20T10:39:22;100748.47;;;31.68;25.97
73842;BME280;62184;52.006;5.924;2023-07-20T10:41:49;100750.00;;;31.79;25.45
73842;BME280;62184;52.006;5.924;2023-07-20T10:44:20;100750.13;;;31.94;25.64
73842;BME280;62184;52.006;5.924;2023-07-20T10:46:46;100745.50;;;31.86;25.59
73842;BME280;62184;52.006;5.924;2023-07-20T10:49:15;100749.00;;;31.72;25.81
73842;BME280;62184;52.006;5.924;2023-07-20T10:51:43;100744.63;;;31.86;25.80
73842;BME280;62184;52.006;5.924;2023-07-20T10:54:35;100732.59;;;32.09;25.48
73842;BME280;62184;52.006;5.924;2023-07-20T10:57:23;100738.63;;;32.52;25.06
73842;BME280;62184;52.006;5.924;2023-07-20T10:59:51;100732.50;;;32.87;24.28
73842;BME280;62184;52.006;5.924;2023-07-20T11:02:18;100739.91;;;33.10;24.20
73842;BME280;62184;52.006;5.924;2023-07-20T11:04:48;100736.28;;;33.32;23.71
73842;BME280;62184;52.006;5.924;2023-07-20T11:10:13;100736.88;;;33.42;23.02
73842;BME280;62184;52.006;5.924;2023-07-20T11:12:40;100735.53;;;33.38;22.99
73842;BME280;62184;52.006;5.924;2023-07-20T11:15:07;100729.81;;;33.17;23.41
73842;BME280;62184;52.006;5.924;2023-07-20T11:17:34;100731.69;;;33.02;23.49
73842;BME280;62184;52.006;5.924;2023-07-20T11:20:04;100734.25;;;32.88;23.95
73842;BME280;62184;52.006;5.924;2023-07-20T11:22:32;100733.97;;;32.75;23.86
73842;BME280;62184;52.006;5.924;2023-07-20T11:24:59;100731.47;;;32.58;24.00
73842;BME280;62184;52.006;5.924;2023-07-20T11:27:26;100722.72;;;32.54;23.93
73842;BME280;62184;52.006;5.924;2023-07-20T11:29:52;100723.94;;;32.51;24.25
73842;BME280;62184;52.006;5.924;2023-07-20T11:32:20;100727.78;;;32.65;24.71
73842;BME280;62184;52.006;5.924;2023-07-20T11:34:47;100725.16;;;32.80;24.29
73842;BME280;62184;52.006;5.924;2023-07-20T11:37:17;100717.00;;;33.01;24.00
73842;BME280;62184;52.006;5.924;2023-07-20T11:39:44;100712.53;;;33.15;24.17
73842;BME280;62184;52.006;5.924;2023-07-20T11:42:11;100713.69;;;32.83;24.62
73842;BME280;62184;52.006;5.924;2023-07-20T11:44:38;100711.81;;;32.52;24.29
73842;BME280;62184;52.006;5.924;2023-07-20T11:47:07;100708.53;;;32.26;24.51
73842;BME280;62184;52.006;5.924;2023-07-20T11:49:36;100718.09;;;32.07;25.22
73842;BME280;62184;52.006;5.924;2023-07-20T11:52:03;100710.22;;;31.96;25.37
73842;BME280;62184;52.006;5.924;2023-07-20T11:54:34;100704.78;;;31.80;25.53
73842;BME280;62184;52.006;5.924;2023-07-20T11:57:02;100706.03;;;31.61;25.68
73842;BME280;62184;52.006;5.924;2023-07-20T11:59:29;100703.78;;;31.57;26.01
73842;BME280;62184;52.006;5.924;2023-07-20T12:01:56;100702.06;;;31.72;26.22
73842;BME280;62184;52.006;5.924;2023-07-20T12:04:23;100699.44;;;32.09;26.01
73842;BME280;62184;52.006;5.924;2023-07-20T12:06:50;100701.06;;;32.58;25.16
73842;BME280;62184;52.006;5.924;2023-07-20T12:09:19;100701.69;;;32.90;24.57
73842;BME280;62184;52.006;5.924;2023-07-20T12:11:49;100699.38;;;33.17;24.47
73842;BME280;62184;52.006;5.924;2023-07-20T12:14:16;100700.28;;;33.32;24.28
73842;BME280;62184;52.006;5.924;2023-07-20T12:16:43;100690.47;;;33.44;24.04
73842;BME280;62184;52.006;5.924;2023-07-20T12:19:11;100697.72;;;33.45;23.64
73842;BME280;62184;52.006;5.924;2023-07-20T12:21:40;100689.06;;;33.11;22.81
73842;BME280;62184;52.006;5.924;2023-07-20T12:24:08;100694.19;;;32.76;23.55
73842;BME280;62184;52.006;5.924;2023-07-20T12:26:36;100693.38;;;32.45;24.01
73842;BME280;62184;52.006;5.924;2023-07-20T12:29:06;100689.53;;;32.23;24.00
73842;BME280;62184;52.006;5.924;2023-07-20T12:31:34;100691.84;;;32.11;24.42
73842;BME280;62184;52.006;5.924;2023-07-20T12:34:02;100683.31;;;32.29;25.06
73842;BME280;62184;52.006;5.924;2023-07-20T12:36:29;100683.53;;;32.65;24.57
73842;BME280;62184;52.006;5.924;2023-07-20T12:38:55;100685.38;;;32.81;24.27
73842;BME280;62184;52.006;5.924;2023-07-20T12:41:22;100680.22;;;32.93;24.02
73842;BME280;62184;52.006;5.924;2023-07-20T12:43:48;100685.69;;;33.01;24.33
73842;BME280;62184;52.006;5.924;2023-07-20T12:46:17;100689.78;;;33.28;24.11
73842;BME280;62184;52.006;5.924;2023-07-20T12:48:45;100676.41;;;33.46;23.19
73842;BME280;62184;52.006;5.924;2023-07-20T12:51:11;100676.88;;;33.49;23.72
73842;BME280;62184;52.006;5.924;2023-07-20T12:53:38;100669.91;;;33.68;23.43
73842;BME280;62184;52.006;5.924;2023-07-20T12:56:05;100657.88;;;33.61;22.75
73842;BME280;62184;52.006;5.924;2023-07-20T12:58:31;100671.63;;;33.25;23.56
73842;BME280;62184;52.006;5.924;2023-07-20T13:00:58;100671.47;;;33.04;24.35
73842;BME280;62184;52.006;5.924;2023-07-20T13:03:27;100672.09;;;32.91;24.06